createdAt,value
2018-06-02T00:01:54.905Z,3.90
2018-06-02T00:04:21.734Z,3.85
2018-06-02T00:06:47.986Z,3.35
2018-06-02T00:09:14.246Z,3.60
2018-06-02T00:11:40.230Z,3.40
2018-06-02T00:14:06.489Z,3.57
2018-06-02T00:16:33.216Z,3.33
2018-06-02T00:19:00.038Z,3.35
2018-06-02T00:21:25.983Z,3.78
2018-06-02T00:23:52.040Z,4.10
2018-06-02T00:26:18.078Z,3.70
2018-06-02T00:28:44.030Z,4.00
2018-06-02T00:31:10.858Z,4.10
2018-06-02T00:33:36.779Z,3.80
2018-06-02T00:36:03.092Z,4.10
2018-06-02T00:38:29.395Z,4.20
2018-06-02T00:40:55.413Z,3.67
2018-06-02T00:43:21.386Z,4.07
2018-06-02T00:45:47.418Z,3.65
2018-06-02T00:48:13.359Z,3.93
2018-06-02T00:50:39.304Z,4.20
2018-06-02T00:53:05.246Z,3.77
2018-06-02T00:55:31.238Z,3.87
2018-06-02T00:57:57.174Z,4.30
2018-06-02T01:00:23.108Z,4.07
2018-06-02T01:02:49.071Z,3.87
2018-06-02T01:05:15.031Z,3.57
2018-06-02T01:07:40.984Z,3.90
2018-06-02T01:10:07.746Z,4.40
2018-06-02T01:12:33.746Z,4.03
2018-06-02T01:15:00.549Z,3.70
2018-06-02T01:17:26.591Z,4.55
2018-06-02T01:19:52.573Z,3.65
2018-06-02T01:22:18.548Z,3.70
2018-06-02T01:24:45.322Z,4.22
2018-06-02T01:27:11.310Z,3.60
2018-06-02T01:29:38.079Z,3.50
2018-06-02T01:32:04.352Z,4.10
2018-06-02T01:34:30.410Z,3.85
2018-06-02T01:36:56.471Z,4.45
2018-06-02T01:39:22.479Z,3.70
2018-06-02T01:41:48.622Z,4.00
2018-06-02T01:44:14.628Z,4.00
2018-06-02T01:46:40.620Z,3.30
2018-06-02T01:49:08.094Z,3.60
2018-06-02T01:51:34.055Z,3.90
2018-06-02T01:54:00.395Z,3.78
2018-06-02T01:56:26.639Z,4.12
2018-06-02T01:58:52.653Z,3.95
2018-06-02T02:01:18.966Z,3.70
2018-06-02T02:03:45.988Z,4.25
2018-06-02T02:06:12.157Z,4.30
2018-06-02T02:08:38.713Z,4.60
2018-06-02T02:11:05.052Z,4.07
2018-06-02T02:13:32.037Z,3.80
2018-06-02T02:15:58.574Z,4.35
2018-06-02T02:18:25.063Z,4.37
2018-06-02T02:20:51.349Z,3.90
2018-06-02T02:23:18.210Z,3.60
2018-06-02T02:25:45.167Z,3.58
2018-06-02T02:28:12.469Z,4.00
2018-06-02T02:30:38.492Z,4.85
2018-06-02T02:33:04.650Z,4.90
2018-06-02T02:35:31.111Z,4.18
2018-06-02T02:37:57.210Z,4.40
2018-06-02T02:40:23.421Z,4.15
2018-06-02T02:42:49.871Z,4.72
2018-06-02T02:45:15.930Z,4.28
2018-06-02T02:47:42.981Z,4.45
2018-06-02T02:50:08.994Z,5.15
2018-06-02T02:52:37.638Z,4.03
2018-06-02T02:55:03.603Z,4.62
2018-06-02T02:57:35.775Z,4.40
2018-06-02T03:00:01.783Z,4.32
2018-06-02T03:02:27.795Z,4.40
2018-06-02T03:04:54.036Z,5.18
2018-06-02T03:07:20.800Z,4.05
2018-06-02T03:09:46.794Z,4.20
2018-06-02T03:12:13.800Z,4.72
2018-06-02T03:14:40.824Z,4.03
2018-06-02T03:17:08.538Z,4.25
2018-06-02T03:19:35.275Z,4.40
2018-06-02T03:22:02.170Z,4.40
2018-06-02T03:24:28.988Z,4.12
2018-06-02T03:26:55.138Z,3.80
2018-06-02T03:29:21.890Z,3.70
2018-06-02T03:31:48.573Z,4.10
2018-06-02T03:34:16.575Z,4.15
2018-06-02T03:36:44.174Z,3.90
2018-06-02T03:39:11.113Z,4.22
2018-06-02T03:41:37.913Z,4.53
2018-06-02T03:44:06.200Z,3.87
2018-06-02T03:46:32.635Z,4.35
2018-06-02T03:48:59.744Z,3.75
2018-06-02T03:51:26.720Z,3.83
2018-06-02T03:53:54.418Z,3.97
2018-06-02T03:56:21.937Z,4.32
2018-06-02T03:58:49.571Z,5.37
2018-06-02T04:01:16.286Z,5.05
2018-06-02T04:03:42.363Z,4.80
2018-06-02T04:06:10.070Z,5.12
2018-06-02T04:08:36.031Z,4.68
2018-06-02T04:11:03.543Z,4.77
2018-06-02T04:13:30.371Z,4.50
2018-06-02T04:15:56.573Z,5.00
2018-06-02T04:18:23.543Z,4.85
2018-06-02T04:20:51.305Z,4.50
2018-06-02T04:23:17.394Z,4.28
2018-06-02T04:25:44.168Z,5.30
2018-06-02T04:28:11.328Z,4.50
2018-06-02T04:30:37.674Z,4.97
2018-06-02T04:33:05.432Z,5.40
2018-06-02T04:35:31.826Z,4.78
2018-06-02T04:37:58.416Z,5.28
2018-06-02T04:40:24.739Z,5.50
2018-06-02T04:42:51.058Z,5.97
2018-06-02T04:45:18.742Z,5.50
2018-06-02T04:47:45.355Z,5.68
2018-06-02T04:50:13.043Z,5.75
2018-06-02T04:52:39.898Z,5.28
2018-06-02T04:55:07.060Z,5.78
2018-06-02T04:57:34.716Z,5.22
2018-06-02T05:00:01.107Z,5.62
2018-06-02T05:02:28.136Z,5.20
2018-06-02T05:04:55.846Z,5.10
2018-06-02T05:07:22.268Z,4.90
2018-06-02T05:09:49.201Z,5.70
2018-06-02T05:12:27.456Z,4.78
2018-06-02T05:14:53.966Z,5.10
2018-06-02T05:17:20.781Z,5.07
2018-06-02T05:19:49.081Z,4.80
2018-06-02T05:22:15.790Z,4.95
2018-06-02T05:24:42.199Z,4.90
2018-06-02T05:27:09.120Z,5.20
2018-06-02T05:29:37.811Z,4.85
2018-06-02T05:32:04.939Z,4.50
2018-06-02T05:34:31.179Z,4.15
2018-06-02T05:36:57.291Z,3.83
2018-06-02T05:39:38.262Z,3.85
2018-06-02T05:42:04.650Z,4.10
2018-06-02T05:44:30.789Z,4.32
2018-06-02T05:46:56.850Z,4.20
2018-06-02T05:49:23.915Z,3.90
2018-06-02T05:51:50.884Z,4.15
2018-06-02T05:54:18.261Z,4.18
2018-06-02T05:56:47.402Z,4.12
2018-06-02T05:59:14.271Z,3.85
2018-06-02T06:01:42.164Z,4.25
2018-06-02T06:04:10.606Z,4.68
2018-06-02T06:06:39.283Z,4.00
2018-06-02T06:09:05.947Z,4.47
2018-06-02T06:11:31.928Z,4.60
2018-06-02T06:13:58.168Z,5.40
2018-06-02T06:16:25.200Z,4.82
2018-06-02T06:18:52.082Z,4.55
2018-06-02T06:21:18.523Z,5.10
2018-06-02T06:23:45.978Z,4.62
2018-06-02T06:26:13.922Z,4.53
2018-06-02T06:28:42.695Z,4.65
2018-06-02T06:31:09.478Z,5.18
2018-06-02T06:33:37.766Z,4.60
2018-06-02T06:36:04.088Z,4.95
2018-06-02T06:38:31.335Z,4.65
2018-06-02T06:40:58.038Z,4.97
2018-06-02T06:43:27.477Z,5.12
2018-06-02T06:45:53.590Z,5.20
2018-06-02T06:48:20.784Z,4.75
2018-06-02T06:50:48.236Z,4.75
2018-06-02T06:53:16.594Z,4.62
2018-06-02T06:55:42.794Z,4.70
2018-06-02T06:58:09.555Z,5.30
2018-06-02T07:00:37.106Z,5.00
2018-06-02T07:03:03.486Z,5.80
2018-06-02T07:05:29.772Z,4.85
2018-06-02T07:07:56.603Z,4.80
2018-06-02T07:10:23.426Z,4.25
2018-06-02T07:12:50.359Z,4.12
2018-06-02T07:15:16.397Z,4.32
2018-06-02T07:17:43.300Z,5.60
2018-06-02T07:20:10.497Z,5.22
2018-06-02T07:22:36.557Z,4.75
2018-06-02T07:25:02.837Z,3.73
2018-06-02T07:27:28.967Z,3.33
2018-06-02T07:29:57.318Z,3.17
2018-06-02T07:32:24.104Z,3.17
2018-06-02T07:34:51.271Z,3.25
2018-06-02T07:37:17.469Z,3.15
2018-06-02T07:39:43.407Z,3.37
2018-06-02T07:42:09.366Z,3.53
2018-06-02T07:44:35.298Z,3.57
2018-06-02T07:47:01.279Z,3.20
2018-06-02T07:49:27.191Z,3.17
2018-06-02T07:51:53.117Z,4.00
2018-06-02T07:54:19.037Z,4.50
2018-06-02T07:56:44.962Z,4.00
2018-06-02T07:59:10.889Z,4.00
2018-06-02T08:01:36.836Z,3.80
2018-06-02T08:04:02.831Z,3.80
2018-06-02T08:06:28.789Z,3.23
2018-06-02T08:08:54.738Z,3.73
2018-06-02T08:11:20.622Z,3.50
2018-06-02T08:13:46.552Z,4.10
2018-06-02T08:16:12.455Z,3.33
2018-06-02T08:18:38.430Z,4.60
2018-06-02T08:21:04.318Z,3.93
2018-06-02T08:23:30.272Z,3.57
2018-06-02T08:25:56.172Z,3.30
2018-06-02T08:28:22.114Z,3.37
2018-06-02T08:30:48.001Z,4.10
2018-06-02T08:33:13.919Z,3.80
2018-06-02T08:35:39.819Z,4.30
2018-06-02T08:38:05.774Z,4.03
2018-06-02T08:40:32.459Z,3.30
2018-06-02T08:42:58.374Z,3.85
2018-06-02T08:45:24.303Z,3.57
2018-06-02T08:47:50.214Z,4.20
2018-06-02T08:50:16.126Z,4.20
2018-06-02T08:52:42.018Z,3.40
2018-06-02T08:55:08.682Z,3.03
2018-06-02T08:57:39.090Z,3.40
2018-06-02T09:00:05.213Z,3.37
2018-06-02T09:02:31.862Z,3.67
2018-06-02T09:04:57.818Z,3.30
2018-06-02T09:07:23.735Z,2.93
2018-06-02T09:09:49.674Z,3.40
2018-06-02T09:12:15.654Z,3.40
2018-06-02T09:14:41.605Z,3.20
2018-06-02T09:17:07.559Z,3.60
2018-06-02T09:19:35.252Z,2.93
2018-06-02T09:22:01.709Z,3.30
2018-06-02T09:24:27.622Z,3.10
2018-06-02T09:26:53.586Z,3.10
2018-06-02T09:29:20.146Z,3.10
2018-06-02T09:31:46.245Z,2.90
2018-06-02T09:34:12.152Z,2.90
2018-06-02T09:36:38.060Z,2.40
2018-06-02T09:39:03.968Z,2.80
2018-06-02T09:41:29.914Z,2.87
2018-06-02T09:43:55.818Z,2.67
2018-06-02T09:46:21.733Z,2.63
2018-06-02T09:48:47.670Z,2.80
2018-06-02T09:51:13.584Z,2.50
2018-06-02T09:53:39.539Z,2.80
2018-06-02T09:56:05.449Z,3.00
2018-06-02T09:58:31.380Z,2.63
2018-06-02T10:00:57.327Z,2.50
2018-06-02T10:03:24.906Z,2.63
2018-06-02T10:05:50.836Z,2.50
2018-06-02T10:08:16.764Z,2.47
2018-06-02T10:10:42.673Z,2.80
2018-06-02T10:13:08.648Z,2.93
2018-06-02T10:15:34.550Z,2.70
2018-06-02T10:18:00.463Z,2.83
2018-06-02T10:20:26.358Z,3.10
2018-06-02T10:22:52.300Z,2.80
2018-06-02T10:25:18.201Z,2.27
2018-06-02T10:27:44.125Z,2.97
2018-06-02T10:30:11.158Z,2.70
2018-06-02T10:32:37.122Z,2.97
2018-06-02T10:35:03.050Z,3.23
2018-06-02T10:37:28.963Z,3.57
2018-06-02T10:39:54.879Z,3.03
2018-06-02T10:42:20.838Z,2.80
2018-06-02T10:44:46.798Z,2.50
2018-06-02T10:47:12.693Z,3.20
2018-06-02T10:49:38.627Z,3.60
2018-06-02T10:52:05.271Z,2.93
2018-06-02T10:54:31.178Z,2.60
2018-06-02T10:56:57.837Z,3.07
2018-06-02T10:59:23.744Z,3.27
2018-06-02T11:01:50.405Z,3.03
2018-06-02T11:04:16.322Z,2.80
2018-06-02T11:06:42.272Z,2.80
2018-06-02T11:09:08.225Z,2.80
2018-06-02T11:11:34.159Z,2.53
2018-06-02T11:14:00.071Z,2.20
2018-06-02T11:16:25.994Z,2.20
2018-06-02T11:18:51.914Z,2.87
2018-06-02T11:21:17.833Z,4.13
2018-06-02T11:23:43.735Z,2.50
2018-06-02T11:26:09.657Z,2.77
2018-06-02T11:28:35.588Z,2.90
2018-06-02T11:31:01.514Z,3.00
2018-06-02T11:33:27.413Z,2.90
2018-06-02T11:35:54.031Z,3.00
2018-06-02T11:38:20.171Z,3.13
2018-06-02T11:40:46.938Z,3.90
2018-06-02T11:43:12.924Z,2.60
2018-06-02T11:45:38.863Z,11.67
2018-06-02T11:48:04.865Z,1.90
2018-06-02T11:50:30.946Z,2.40
2018-06-02T11:52:59.195Z,2.40
2018-06-02T11:55:25.324Z,2.07
2018-06-02T11:57:52.857Z,2.17
2018-06-02T12:00:19.813Z,2.73
2018-06-02T12:02:45.791Z,2.37
2018-06-02T12:05:11.750Z,2.03
2018-06-02T12:07:37.789Z,3.10
2018-06-02T12:10:03.752Z,2.90
2018-06-02T12:12:29.780Z,2.27
2018-06-02T12:14:55.976Z,2.30
2018-06-02T12:17:22.031Z,2.30
2018-06-02T12:19:48.042Z,4.33
2018-06-02T12:22:14.289Z,7.30
2018-06-02T12:24:40.270Z,4.20
2018-06-02T12:27:06.225Z,2.43
2018-06-02T12:29:32.204Z,2.30
2018-06-02T12:31:58.129Z,2.20
2018-06-02T12:34:24.052Z,2.40
2018-06-02T12:36:49.958Z,2.43
2018-06-02T12:39:15.871Z,2.47
2018-06-02T12:41:41.855Z,2.23
2018-06-02T12:44:08.545Z,2.73
2018-06-02T12:46:34.527Z,2.70
2018-06-02T12:49:00.495Z,2.00
2018-06-02T12:51:26.442Z,2.60
2018-06-02T12:53:52.384Z,2.43
2018-06-02T12:56:18.610Z,2.07
2018-06-02T12:58:44.846Z,2.30
2018-06-02T13:01:11.966Z,2.30
2018-06-02T13:03:41.806Z,2.27
2018-06-02T13:06:08.988Z,2.37
2018-06-02T13:08:36.899Z,2.50
2018-06-02T13:11:04.895Z,2.50
2018-06-02T13:13:32.496Z,2.27
2018-06-02T13:15:58.419Z,2.20
2018-06-02T13:18:24.383Z,2.30
2018-06-02T13:20:51.054Z,2.20
2018-06-02T13:23:16.948Z,2.27
2018-06-02T13:25:43.603Z,2.80
2018-06-02T13:28:09.509Z,2.37
2018-06-02T13:30:36.150Z,2.27
2018-06-02T13:33:02.811Z,2.40
2018-06-02T13:35:28.790Z,2.20
2018-06-02T13:37:54.711Z,2.50
2018-06-02T13:40:20.667Z,2.27
2018-06-02T13:42:46.591Z,2.20
2018-06-02T13:45:12.566Z,2.13
2018-06-02T13:47:38.470Z,2.53
2018-06-02T13:50:04.381Z,2.07
2018-06-02T13:52:30.344Z,2.13
2018-06-02T13:54:56.260Z,2.30
2018-06-02T13:57:22.207Z,2.80
2018-06-02T13:59:48.125Z,2.60
2018-06-02T14:02:14.065Z,2.23
2018-06-02T14:04:39.961Z,2.63
2018-06-02T14:07:06.618Z,2.43
2018-06-02T14:09:32.537Z,2.37
2018-06-02T14:11:58.472Z,2.57
2018-06-02T14:14:24.431Z,3.10
2018-06-02T14:16:50.339Z,2.43
2018-06-02T14:19:16.291Z,2.33
2018-06-02T16:59:24.308Z,3.30
2018-06-02T17:10:52.181Z,3.63
2018-06-02T17:13:19.339Z,4.17
2018-06-02T17:15:49.646Z,4.17
2018-06-02T17:18:20.454Z,3.63
2018-06-02T17:20:48.632Z,3.53
2018-06-02T17:23:16.119Z,3.93
2018-06-02T17:25:43.362Z,3.73
2018-06-02T17:28:12.228Z,3.70
2018-06-02T17:30:39.751Z,4.30
2018-06-02T17:33:06.481Z,3.13
2018-06-02T17:35:34.998Z,3.63
2018-06-02T17:38:02.748Z,4.10
2018-06-02T17:40:29.254Z,3.57
2018-06-02T17:42:55.328Z,3.53
2018-06-02T17:45:21.688Z,3.40
2018-06-02T17:47:47.648Z,3.67
2018-06-02T17:50:13.559Z,4.20
2018-06-02T17:52:39.457Z,4.43
2018-06-02T17:55:05.414Z,5.30
2018-06-02T17:57:31.324Z,4.20
2018-06-02T17:59:57.274Z,4.67
2018-06-02T18:02:23.200Z,3.77
2018-06-02T18:04:49.181Z,4.83
2018-06-02T18:07:16.716Z,4.10
2018-06-02T18:09:43.410Z,4.23
2018-06-02T18:12:09.379Z,3.97
2018-06-02T18:14:37.807Z,4.00
2018-06-02T18:17:06.118Z,4.30
2018-06-02T18:19:32.101Z,4.20
2018-06-02T18:21:58.382Z,3.73
2018-06-02T18:24:25.869Z,5.27
2018-06-02T18:26:52.648Z,4.60
2018-06-02T18:29:19.669Z,4.40
2018-06-02T18:31:46.493Z,4.10
2018-06-02T18:34:14.217Z,4.27
2018-06-02T18:36:40.176Z,4.40
2018-06-02T18:39:08.723Z,4.37
2018-06-02T18:41:35.770Z,4.40
2018-06-02T18:44:01.720Z,4.77
2018-06-02T18:46:29.140Z,4.37
2018-06-02T18:48:56.758Z,4.10
2018-06-02T18:51:23.990Z,4.17
2018-06-02T18:53:50.376Z,4.00
2018-06-02T18:56:17.930Z,4.50
2018-06-02T18:58:44.736Z,4.03
2018-06-02T19:01:11.965Z,4.30
2018-06-02T19:03:38.843Z,4.13
2018-06-02T19:06:04.931Z,4.13
2018-06-02T19:08:31.491Z,4.60
2018-06-02T19:10:58.426Z,4.20
2018-06-02T19:13:25.238Z,4.57
2018-06-02T19:15:52.356Z,4.30
2018-06-02T19:18:19.207Z,3.73
2018-06-02T19:20:45.922Z,4.60
2018-06-02T19:23:12.725Z,4.17
2018-06-02T19:25:38.735Z,4.40
2018-06-02T19:28:05.880Z,3.77
2018-06-02T19:30:33.460Z,4.23
2018-06-02T19:33:01.062Z,4.27
2018-06-02T19:35:28.019Z,4.10
2018-06-02T19:37:55.374Z,4.13
2018-06-02T19:40:24.959Z,4.97
2018-06-02T19:42:52.085Z,4.90
2018-06-02T19:45:21.729Z,4.20
2018-06-02T19:47:51.545Z,4.17
2018-06-02T19:50:18.419Z,4.00
2018-06-02T19:52:47.020Z,4.27
2018-06-02T19:55:13.433Z,4.37
2018-06-02T19:57:44.179Z,4.13
2018-06-02T20:00:10.995Z,4.20
2018-06-02T20:02:37.950Z,4.20
2018-06-02T20:05:05.481Z,3.83
2018-06-02T20:07:33.050Z,4.37
2018-06-02T20:10:00.879Z,4.77
2018-06-02T20:12:27.778Z,5.45
2018-06-02T20:14:54.746Z,3.70
2018-06-02T20:17:21.580Z,4.83
2018-06-02T20:19:47.726Z,4.47
2018-06-02T20:22:14.507Z,5.00
2018-06-02T20:24:41.216Z,4.37
2018-06-02T20:27:07.969Z,4.47
2018-06-02T20:29:34.934Z,4.43
2018-06-02T20:32:01.280Z,5.00
2018-06-02T20:34:28.079Z,5.10
2018-06-02T20:36:54.627Z,4.60
2018-06-02T20:39:21.420Z,5.13
2018-06-02T20:41:47.781Z,4.83
2018-06-02T20:44:14.249Z,4.68
2018-06-02T20:46:41.344Z,4.93
2018-06-02T20:49:08.837Z,5.15
2018-06-02T20:51:34.814Z,4.90
2018-06-02T20:54:01.079Z,4.80
2018-06-02T20:56:28.659Z,5.30
2018-06-02T20:58:55.587Z,5.20
2018-06-02T21:01:22.594Z,5.37
2018-06-02T21:03:49.364Z,5.55
2018-06-02T21:06:15.342Z,5.23
2018-06-02T21:08:41.296Z,5.47
2018-06-02T21:11:07.812Z,5.40
2018-06-02T21:13:34.883Z,5.62
2018-06-02T21:16:02.387Z,5.85
2018-06-02T21:18:28.616Z,5.20
2018-06-02T21:20:55.392Z,4.85
2018-06-02T21:23:21.385Z,5.30
2018-06-02T21:25:48.472Z,4.80
2018-06-02T21:28:15.786Z,4.82
2018-06-02T21:30:42.513Z,5.55
2018-06-02T21:33:09.774Z,4.62
2018-06-02T21:35:37.023Z,4.60
2018-06-02T21:38:03.507Z,4.80
2018-06-02T21:40:30.050Z,5.70
2018-06-02T21:42:56.543Z,5.15
2018-06-02T21:45:23.817Z,5.10
2018-06-02T21:47:50.578Z,4.80
2018-06-02T21:50:18.127Z,5.32
2018-06-02T21:52:45.344Z,5.20
2018-06-02T21:55:12.920Z,5.37
2018-06-02T21:57:39.778Z,5.25
2018-06-02T22:00:05.784Z,5.43
2018-06-02T22:02:32.191Z,5.30
2018-06-02T22:04:59.751Z,5.72
2018-06-02T22:07:27.235Z,5.60
2018-06-02T22:09:53.482Z,5.57
2018-06-02T22:12:20.707Z,6.28
2018-06-02T22:14:47.066Z,5.30
2018-06-02T22:17:13.259Z,5.43
2018-06-02T22:19:40.095Z,5.37
2018-06-02T22:22:07.308Z,5.53
